sensor_id;sensor_type;location;lat;lon;timestamp;P1;durP1;ratioP1;P2;durP2;ratioP2
17310;SDS011;8773;43.300;0.394;2022-09-12T00:01:12;2.33;;;2.10;;
17310;SDS011;8773;43.300;0.394;2022-09-12T00:03:42;3.05;;;2.33;;
17310;SDS011;8773;43.300;0.394;2022-09-12T00:06:11;2.60;;;2.50;;
17310;SDS011;8773;43.300;0.394;2022-09-12T00:08:48;2.75;;;2.55;;
17310;SDS011;8773;43.300;0.394;2022-09-12T00:11:16;2.28;;;2.17;;
17310;SDS011;8773;43.300;0.394;2022-09-12T00:13:45;2.20;;;2.10;;
17310;SDS011;8773;43.300;0.394;2022-09-12T00:16:15;2.97;;;2.35;;
17310;SDS011;8773;43.300;0.394;2022-09-12T00:18:44;2.13;;;2.03;;
17310;SDS011;8773;43.300;0.394;2022-09-12T00:21:13;3.67;;;2.20;;
17310;SDS011;8773;43.300;0.394;2022-09-12T00:23:41;2.40;;;2.30;;
17310;SDS011;8773;43.300;0.394;2022-09-12T00:26:09;2.45;;;2.25;;
17310;SDS011;8773;43.300;0.394;2022-09-12T00:28:38;2.33;;;2.22;;
17310;SDS011;8773;43.300;0.394;2022-09-12T00:31:08;2.47;;;2.28;;
17310;SDS011;8773;43.300;0.394;2022-09-12T00:33:39;2.63;;;2.10;;
17310;SDS011;8773;43.300;0.394;2022-09-12T00:36:09;2.10;;;1.90;;
17310;SDS011;8773;43.300;0.394;2022-09-12T00:38:40;2.10;;;2.00;;
17310;SDS011;8773;43.300;0.394;2022-09-12T00:43:42;2.33;;;2.13;;
17310;SDS011;8773;43.300;0.394;2022-09-12T00:46:13;2.13;;;1.92;;
17310;SDS011;8773;43.300;0.394;2022-09-12T00:48:51;2.28;;;2.17;;
17310;SDS011;8773;43.300;0.394;2022-09-12T00:51:25;2.60;;;2.22;;
17310;SDS011;8773;43.300;0.394;2022-09-12T00:53:56;2.67;;;2.47;;
17310;SDS011;8773;43.300;0.394;2022-09-12T00:56:27;2.20;;;2.10;;
17310;SDS011;8773;43.300;0.394;2022-09-12T00:58:57;4.03;;;2.40;;
17310;SDS011;8773;43.300;0.394;2022-09-12T01:01:30;2.83;;;2.00;;
17310;SDS011;8773;43.300;0.394;2022-09-12T01:04:00;2.33;;;2.22;;
17310;SDS011;8773;43.300;0.394;2022-09-12T01:06:31;2.10;;;2.00;;
17310;SDS011;8773;43.300;0.394;2022-09-12T01:09:02;2.60;;;2.40;;
17310;SDS011;8773;43.300;0.394;2022-09-12T01:11:30;2.33;;;2.22;;
17310;SDS011;8773;43.300;0.394;2022-09-12T01:14:00;2.30;;;2.20;;
17310;SDS011;8773;43.300;0.394;2022-09-12T01:16:28;2.40;;;2.30;;
17310;SDS011;8773;43.300;0.394;2022-09-12T01:19:04;2.20;;;2.10;;
17310;SDS011;8773;43.300;0.394;2022-09-12T01:21:43;2.38;;;2.20;;
17310;SDS011;8773;43.300;0.394;2022-09-12T01:27:32;2.38;;;2.17;;
17310;SDS011;8773;43.300;0.394;2022-09-12T01:33:18;2.03;;;1.80;;
17310;SDS011;8773;43.300;0.394;2022-09-12T01:36:19;2.38;;;1.90;;
17310;SDS011;8773;43.300;0.394;2022-09-12T01:39:01;2.40;;;1.90;;
17310;SDS011;8773;43.300;0.394;2022-09-12T01:41:36;1.92;;;1.83;;
17310;SDS011;8773;43.300;0.394;2022-09-12T01:44:20;1.80;;;1.70;;
17310;SDS011;8773;43.300;0.394;2022-09-12T01:46:58;1.90;;;1.80;;
17310;SDS011;8773;43.300;0.394;2022-09-12T01:49:35;2.10;;;2.00;;
17310;SDS011;8773;43.300;0.394;2022-09-12T01:52:09;1.85;;;1.75;;
17310;SDS011;8773;43.300;0.394;2022-09-12T01:54:43;1.70;;;1.60;;
17310;SDS011;8773;43.300;0.394;2022-09-12T01:57:17;1.88;;;1.77;;
17310;SDS011;8773;43.300;0.394;2022-09-12T01:59:51;1.90;;;1.80;;
17310;SDS011;8773;43.300;0.394;2022-09-12T02:02:26;4.05;;;2.05;;
17310;SDS011;8773;43.300;0.394;2022-09-12T02:04:59;2.63;;;1.90;;
17310;SDS011;8773;43.300;0.394;2022-09-12T02:07:32;1.88;;;1.80;;
17310;SDS011;8773;43.300;0.394;2022-09-12T02:10:05;1.50;;;1.50;;
17310;SDS011;8773;43.300;0.394;2022-09-12T02:12:38;1.70;;;1.60;;
17310;SDS011;8773;43.300;0.394;2022-09-12T02:15:12;2.03;;;1.83;;
17310;SDS011;8773;43.300;0.394;2022-09-12T02:17:46;1.90;;;1.80;;
17310;SDS011;8773;43.300;0.394;2022-09-12T02:20:18;1.80;;;1.70;;
17310;SDS011;8773;43.300;0.394;2022-09-12T02:23:10;2.00;;;1.90;;
17310;SDS011;8773;43.300;0.394;2022-09-12T02:25:43;2.10;;;1.95;;
17310;SDS011;8773;43.300;0.394;2022-09-12T02:28:14;2.05;;;1.95;;
17310;SDS011;8773;43.300;0.394;2022-09-12T02:30:48;1.80;;;1.67;;
17310;SDS011;8773;43.300;0.394;2022-09-12T02:33:25;1.90;;;1.80;;
17310;SDS011;8773;43.300;0.394;2022-09-12T02:35:57;2.40;;;2.20;;
17310;SDS011;8773;43.300;0.394;2022-09-12T02:38:32;3.03;;;2.40;;
17310;SDS011;8773;43.300;0.394;2022-09-12T02:41:04;2.15;;;2.05;;
17310;SDS011;8773;43.300;0.394;2022-09-12T02:43:32;2.53;;;2.20;;
17310;SDS011;8773;43.300;0.394;2022-09-12T02:46:03;2.67;;;2.08;;
17310;SDS011;8773;43.300;0.394;2022-09-12T02:48:36;2.20;;;2.10;;
17310;SDS011;8773;43.300;0.394;2022-09-12T02:51:08;2.13;;;1.80;;
17310;SDS011;8773;43.300;0.394;2022-09-12T02:53:37;2.38;;;2.20;;
17310;SDS011;8773;43.300;0.394;2022-09-12T02:56:06;3.08;;;2.10;;
17310;SDS011;8773;43.300;0.394;2022-09-12T02:58:37;2.00;;;1.90;;
17310;SDS011;8773;43.300;0.394;2022-09-12T03:01:07;2.00;;;1.90;;
17310;SDS011;8773;43.300;0.394;2022-09-12T03:06:42;1.85;;;1.73;;
17310;SDS011;8773;43.300;0.394;2022-09-12T03:09:24;2.22;;;1.98;;
17310;SDS011;8773;43.300;0.394;2022-09-12T03:12:07;1.52;;;1.42;;
17310;SDS011;8773;43.300;0.394;2022-09-12T03:14:50;3.92;;;2.25;;
17310;SDS011;8773;43.300;0.394;2022-09-12T03:17:45;2.33;;;1.88;;
17310;SDS011;8773;43.300;0.394;2022-09-12T03:20:28;2.10;;;1.90;;
17310;SDS011;8773;43.300;0.394;2022-09-12T03:23:08;2.00;;;1.90;;
17310;SDS011;8773;43.300;0.394;2022-09-12T03:25:43;1.88;;;1.77;;
17310;SDS011;8773;43.300;0.394;2022-09-12T03:28:15;1.90;;;1.80;;
17310;SDS011;8773;43.300;0.394;2022-09-12T03:30:47;1.60;;;1.50;;
17310;SDS011;8773;43.300;0.394;2022-09-12T03:33:17;1.95;;;1.85;;
17310;SDS011;8773;43.300;0.394;2022-09-12T03:35:47;3.20;;;2.10;;
17310;SDS011;8773;43.300;0.394;2022-09-12T03:38:16;1.85;;;1.75;;
17310;SDS011;8773;43.300;0.394;2022-09-12T03:40:45;1.98;;;1.83;;
17310;SDS011;8773;43.300;0.394;2022-09-12T03:43:19;1.65;;;1.55;;
17310;SDS011;8773;43.300;0.394;2022-09-12T03:45:48;2.75;;;1.83;;
17310;SDS011;8773;43.300;0.394;2022-09-12T03:48:17;1.85;;;1.60;;
17310;SDS011;8773;43.300;0.394;2022-09-12T03:50:45;3.28;;;1.90;;
17310;SDS011;8773;43.300;0.394;2022-09-12T03:53:15;2.58;;;2.28;;
17310;SDS011;8773;43.300;0.394;2022-09-12T03:55:43;1.70;;;1.60;;
17310;SDS011;8773;43.300;0.394;2022-09-12T03:58:13;2.80;;;1.80;;
17310;SDS011;8773;43.300;0.394;2022-09-12T04:00:41;1.80;;;1.70;;
17310;SDS011;8773;43.300;0.394;2022-09-12T04:03:09;1.90;;;1.70;;
17310;SDS011;8773;43.300;0.394;2022-09-12T04:05:37;2.08;;;1.85;;
17310;SDS011;8773;43.300;0.394;2022-09-12T04:08:05;1.77;;;1.67;;
17310;SDS011;8773;43.300;0.394;2022-09-12T04:10:35;2.38;;;1.77;;
17310;SDS011;8773;43.300;0.394;2022-09-12T04:13:03;2.17;;;1.73;;
17310;SDS011;8773;43.300;0.394;2022-09-12T04:15:31;1.90;;;1.80;;
17310;SDS011;8773;43.300;0.394;2022-09-12T04:17:58;1.75;;;1.65;;
17310;SDS011;8773;43.300;0.394;2022-09-12T04:20:31;1.85;;;1.75;;
17310;SDS011;8773;43.300;0.394;2022-09-12T04:23:00;1.90;;;1.80;;
17310;SDS011;8773;43.300;0.394;2022-09-12T04:25:28;1.70;;;1.60;;
17310;SDS011;8773;43.300;0.394;2022-09-12T04:27:58;1.92;;;1.80;;
17310;SDS011;8773;43.300;0.394;2022-09-12T04:30:28;1.95;;;1.70;;
17310;SDS011;8773;43.300;0.394;2022-09-12T04:32:56;1.90;;;1.80;;
17310;SDS011;8773;43.300;0.394;2022-09-12T04:35:24;2.38;;;2.00;;
17310;SDS011;8773;43.300;0.394;2022-09-12T04:37:53;1.88;;;1.77;;
17310;SDS011;8773;43.300;0.394;2022-09-12T04:40:21;2.38;;;2.20;;
17310;SDS011;8773;43.300;0.394;2022-09-12T04:42:49;2.33;;;2.03;;
17310;SDS011;8773;43.300;0.394;2022-09-12T04:45:18;1.90;;;1.80;;
17310;SDS011;8773;43.300;0.394;2022-09-12T04:47:46;2.20;;;2.10;;
17310;SDS011;8773;43.300;0.394;2022-09-12T04:50:14;2.55;;;1.90;;
17310;SDS011;8773;43.300;0.394;2022-09-12T04:52:42;1.95;;;1.80;;
17310;SDS011;8773;43.300;0.394;2022-09-12T04:55:10;2.05;;;2.05;;
17310;SDS011;8773;43.300;0.394;2022-09-12T04:57:38;2.20;;;2.10;;
17310;SDS011;8773;43.300;0.394;2022-09-12T05:00:07;2.08;;;1.90;;
17310;SDS011;8773;43.300;0.394;2022-09-12T05:02:40;1.90;;;1.80;;
17310;SDS011;8773;43.300;0.394;2022-09-12T05:05:08;1.77;;;1.67;;
17310;SDS011;8773;43.300;0.394;2022-09-12T05:07:37;2.45;;;2.25;;
17310;SDS011;8773;43.300;0.394;2022-09-12T05:10:06;2.15;;;2.05;;
17310;SDS011;8773;43.300;0.394;2022-09-12T05:12:35;2.03;;;1.92;;
17310;SDS011;8773;43.300;0.394;2022-09-12T05:15:03;2.20;;;2.00;;
17310;SDS011;8773;43.300;0.394;2022-09-12T05:17:32;2.28;;;1.92;;
17310;SDS011;8773;43.300;0.394;2022-09-12T05:20:01;2.45;;;1.85;;
17310;SDS011;8773;43.300;0.394;2022-09-12T05:22:29;2.88;;;1.88;;
17310;SDS011;8773;43.300;0.394;2022-09-12T05:24:57;2.38;;;1.92;;
17310;SDS011;8773;43.300;0.394;2022-09-12T05:27:25;2.75;;;2.25;;
17310;SDS011;8773;43.300;0.394;2022-09-12T05:29:53;1.98;;;1.88;;
17310;SDS011;8773;43.300;0.394;2022-09-12T05:32:21;2.15;;;1.98;;
17310;SDS011;8773;43.300;0.394;2022-09-12T05:34:49;2.03;;;1.90;;
17310;SDS011;8773;43.300;0.394;2022-09-12T05:37:18;2.78;;;1.80;;
17310;SDS011;8773;43.300;0.394;2022-09-12T05:39:46;2.28;;;2.08;;
17310;SDS011;8773;43.300;0.394;2022-09-12T05:42:14;2.33;;;2.13;;
17310;SDS011;8773;43.300;0.394;2022-09-12T05:44:42;3.88;;;2.40;;
17310;SDS011;8773;43.300;0.394;2022-09-12T05:47:12;2.42;;;2.22;;
17310;SDS011;8773;43.300;0.394;2022-09-12T05:49:40;2.65;;;2.20;;
17310;SDS011;8773;43.300;0.394;2022-09-12T05:52:10;2.22;;;2.00;;
17310;SDS011;8773;43.300;0.394;2022-09-12T05:54:40;2.30;;;2.10;;
17310;SDS011;8773;43.300;0.394;2022-09-12T05:57:08;4.18;;;2.20;;
17310;SDS011;8773;43.300;0.394;2022-09-12T05:59:36;2.53;;;2.33;;
17310;SDS011;8773;43.300;0.394;2022-09-12T06:02:04;3.55;;;2.28;;
17310;SDS011;8773;43.300;0.394;2022-09-12T06:04:32;3.70;;;2.35;;
17310;SDS011;8773;43.300;0.394;2022-09-12T06:07:00;2.40;;;2.20;;
17310;SDS011;8773;43.300;0.394;2022-09-12T06:09:30;2.72;;;2.47;;
17310;SDS011;8773;43.300;0.394;2022-09-12T06:11:59;3.30;;;2.20;;
17310;SDS011;8773;43.300;0.394;2022-09-12T06:14:27;3.67;;;2.28;;
17310;SDS011;8773;43.300;0.394;2022-09-12T06:16:55;3.60;;;2.33;;
17310;SDS011;8773;43.300;0.394;2022-09-12T06:19:23;2.88;;;2.40;;
17310;SDS011;8773;43.300;0.394;2022-09-12T06:21:53;2.47;;;2.00;;
17310;SDS011;8773;43.300;0.394;2022-09-12T06:24:21;4.68;;;2.30;;
17310;SDS011;8773;43.300;0.394;2022-09-12T06:26:49;3.70;;;2.08;;
17310;SDS011;8773;43.300;0.394;2022-09-12T06:29:20;3.15;;;2.20;;
17310;SDS011;8773;43.300;0.394;2022-09-12T06:31:48;3.20;;;2.00;;
17310;SDS011;8773;43.300;0.394;2022-09-12T06:34:16;3.67;;;2.60;;
17310;SDS011;8773;43.300;0.394;2022-09-12T06:36:45;4.15;;;2.15;;
17310;SDS011;8773;43.300;0.394;2022-09-12T06:39:15;4.05;;;2.10;;
17310;SDS011;8773;43.300;0.394;2022-09-12T06:41:43;4.88;;;2.30;;
17310;SDS011;8773;43.300;0.394;2022-09-12T06:44:13;7.60;;;2.20;;
17310;SDS011;8773;43.300;0.394;2022-09-12T06:46:44;2.72;;;2.25;;
17310;SDS011;8773;43.300;0.394;2022-09-12T06:49:13;3.08;;;2.00;;
17310;SDS011;8773;43.300;0.394;2022-09-12T06:51:41;2.92;;;2.10;;
17310;SDS011;8773;43.300;0.394;2022-09-12T06:54:11;3.47;;;2.05;;
17310;SDS011;8773;43.300;0.394;2022-09-12T06:56:39;2.92;;;1.92;;
17310;SDS011;8773;43.300;0.394;2022-09-12T06:59:08;3.28;;;2.13;;
17310;SDS011;8773;43.300;0.394;2022-09-12T07:01:36;4.78;;;2.38;;
17310;SDS011;8773;43.300;0.394;2022-09-12T07:04:07;8.10;;;2.50;;
17310;SDS011;8773;43.300;0.394;2022-09-12T07:06:36;3.13;;;2.28;;
17310;SDS011;8773;43.300;0.394;2022-09-12T07:09:06;9.48;;;2.88;;
17310;SDS011;8773;43.300;0.394;2022-09-12T07:11:36;3.45;;;2.40;;
17310;SDS011;8773;43.300;0.394;2022-09-12T07:14:06;3.80;;;1.88;;
17310;SDS011;8773;43.300;0.394;2022-09-12T07:16:36;4.85;;;2.40;;
17310;SDS011;8773;43.300;0.394;2022-09-12T07:19:05;5.45;;;2.00;;
17310;SDS011;8773;43.300;0.394;2022-09-12T07:21:35;3.08;;;2.00;;
17310;SDS011;8773;43.300;0.394;2022-09-12T07:24:06;3.53;;;2.40;;
17310;SDS011;8773;43.300;0.394;2022-09-12T07:26:35;4.25;;;1.70;;
17310;SDS011;8773;43.300;0.394;2022-09-12T07:29:03;3.97;;;2.20;;
17310;SDS011;8773;43.300;0.394;2022-09-12T07:31:51;2.85;;;2.10;;
17310;SDS011;8773;43.300;0.394;2022-09-12T07:34:21;2.42;;;1.88;;
17310;SDS011;8773;43.300;0.394;2022-09-12T07:36:49;2.95;;;2.17;;
17310;SDS011;8773;43.300;0.394;2022-09-12T07:39:18;4.93;;;2.08;;
17310;SDS011;8773;43.300;0.394;2022-09-12T07:41:45;4.47;;;2.37;;
17310;SDS011;8773;43.300;0.394;2022-09-12T07:44:13;2.72;;;2.30;;
17310;SDS011;8773;43.300;0.394;2022-09-12T07:46:41;4.13;;;2.38;;
17310;SDS011;8773;43.300;0.394;2022-09-12T07:49:10;6.32;;;2.10;;
17310;SDS011;8773;43.300;0.394;2022-09-12T07:51:40;5.80;;;2.33;;
17310;SDS011;8773;43.300;0.394;2022-09-12T07:54:08;2.83;;;2.10;;
17310;SDS011;8773;43.300;0.394;2022-09-12T07:56:37;3.17;;;2.08;;
17310;SDS011;8773;43.300;0.394;2022-09-12T07:59:06;4.90;;;2.38;;
17310;SDS011;8773;43.300;0.394;2022-09-12T08:01:34;4.63;;;2.05;;
17310;SDS011;8773;43.300;0.394;2022-09-12T08:04:02;4.35;;;2.35;;
17310;SDS011;8773;43.300;0.394;2022-09-12T08:06:30;2.63;;;2.10;;
17310;SDS011;8773;43.300;0.394;2022-09-12T08:09:03;3.17;;;2.35;;
17310;SDS011;8773;43.300;0.394;2022-09-12T08:11:33;2.75;;;2.13;;
17310;SDS011;8773;43.300;0.394;2022-09-12T08:14:01;4.40;;;2.47;;
17310;SDS011;8773;43.300;0.394;2022-09-12T08:16:31;3.60;;;2.10;;
17310;SDS011;8773;43.300;0.394;2022-09-12T08:19:00;5.13;;;2.47;;
17310;SDS011;8773;43.300;0.394;2022-09-12T08:21:30;5.82;;;2.53;;
17310;SDS011;8773;43.300;0.394;2022-09-12T08:24:00;6.38;;;4.25;;
17310;SDS011;8773;43.300;0.394;2022-09-12T08:26:32;6.38;;;5.10;;
17310;SDS011;8773;43.300;0.394;2022-09-12T08:29:01;8.00;;;3.85;;
17310;SDS011;8773;43.300;0.394;2022-09-12T08:31:30;5.28;;;3.22;;
17310;SDS011;8773;43.300;0.394;2022-09-12T08:34:02;8.15;;;4.43;;
17310;SDS011;8773;43.300;0.394;2022-09-12T08:36:30;4.70;;;3.80;;
17310;SDS011;8773;43.300;0.394;2022-09-12T08:38:59;5.90;;;4.13;;
17310;SDS011;8773;43.300;0.394;2022-09-12T08:41:32;4.95;;;3.30;;
17310;SDS011;8773;43.300;0.394;2022-09-12T08:46:55;3.85;;;2.45;;
17310;SDS011;8773;43.300;0.394;2022-09-12T08:49:44;6.72;;;2.42;;
17310;SDS011;8773;43.300;0.394;2022-09-12T08:52:19;5.78;;;2.28;;
17310;SDS011;8773;43.300;0.394;2022-09-12T08:54:53;3.15;;;2.30;;
17310;SDS011;8773;43.300;0.394;2022-09-12T08:57:23;12.02;;;3.38;;
17310;SDS011;8773;43.300;0.394;2022-09-12T08:59:51;7.63;;;2.83;;
17310;SDS011;8773;43.300;0.394;2022-09-12T09:02:27;6.32;;;2.88;;
17310;SDS011;8773;43.300;0.394;2022-09-12T09:05:11;5.78;;;2.40;;
17310;SDS011;8773;43.300;0.394;2022-09-12T09:10:41;9.75;;;3.08;;
17310;SDS011;8773;43.300;0.394;2022-09-12T09:13:21;8.35;;;2.70;;
17310;SDS011;8773;43.300;0.394;2022-09-12T09:16:19;4.32;;;2.25;;
17310;SDS011;8773;43.300;0.394;2022-09-12T09:18:56;7.03;;;2.38;;
17310;SDS011;8773;43.300;0.394;2022-09-12T09:21:28;5.70;;;2.85;;
17310;SDS011;8773;43.300;0.394;2022-09-12T09:24:00;9.77;;;2.75;;
17310;SDS011;8773;43.300;0.394;2022-09-12T09:26:36;8.15;;;2.17;;
17310;SDS011;8773;43.300;0.394;2022-09-12T09:29:13;5.28;;;2.80;;
17310;SDS011;8773;43.300;0.394;2022-09-12T09:31:43;7.15;;;2.75;;
17310;SDS011;8773;43.300;0.394;2022-09-12T09:34:17;4.95;;;2.80;;
17310;SDS011;8773;43.300;0.394;2022-09-12T09:36:50;6.40;;;2.47;;
17310;SDS011;8773;43.300;0.394;2022-09-12T09:39:26;6.45;;;2.63;;
17310;SDS011;8773;43.300;0.394;2022-09-12T09:42:08;5.72;;;2.60;;
17310;SDS011;8773;43.300;0.394;2022-09-12T09:44:46;5.55;;;2.92;;
17310;SDS011;8773;43.300;0.394;2022-09-12T09:47:14;3.67;;;2.00;;
17310;SDS011;8773;43.300;0.394;2022-09-12T09:49:44;6.40;;;2.40;;
17310;SDS011;8773;43.300;0.394;2022-09-12T09:52:13;5.30;;;2.20;;
17310;SDS011;8773;43.300;0.394;2022-09-12T09:54:43;7.60;;;2.65;;
17310;SDS011;8773;43.300;0.394;2022-09-12T10:00:29;5.75;;;2.33;;
17310;SDS011;8773;43.300;0.394;2022-09-12T10:02:59;3.13;;;2.10;;
17310;SDS011;8773;43.300;0.394;2022-09-12T10:05:31;6.75;;;2.60;;
17310;SDS011;8773;43.300;0.394;2022-09-12T10:08:01;6.03;;;2.60;;
17310;SDS011;8773;43.300;0.394;2022-09-12T10:10:33;4.82;;;2.60;;
17310;SDS011;8773;43.300;0.394;2022-09-12T10:13:07;8.75;;;2.63;;
17310;SDS011;8773;43.300;0.394;2022-09-12T10:15:57;3.00;;;2.38;;
17310;SDS011;8773;43.300;0.394;2022-09-12T10:18:38;5.78;;;2.50;;
17310;SDS011;8773;43.300;0.394;2022-09-12T10:21:11;4.13;;;2.42;;
17310;SDS011;8773;43.300;0.394;2022-09-12T10:23:49;5.65;;;2.28;;
17310;SDS011;8773;43.300;0.394;2022-09-12T10:26:19;8.50;;;2.80;;
17310;SDS011;8773;43.300;0.394;2022-09-12T10:28:49;6.50;;;2.65;;
17310;SDS011;8773;43.300;0.394;2022-09-12T10:31:24;4.78;;;2.35;;
17310;SDS011;8773;43.300;0.394;2022-09-12T10:33:56;7.22;;;2.40;;
17310;SDS011;8773;43.300;0.394;2022-09-12T10:36:33;4.82;;;2.47;;
17310;SDS011;8773;43.300;0.394;2022-09-12T10:39:03;5.45;;;1.80;;
17310;SDS011;8773;43.300;0.394;2022-09-12T10:41:35;5.28;;;2.15;;
17310;SDS011;8773;43.300;0.394;2022-09-12T10:44:05;4.15;;;1.80;;
17310;SDS011;8773;43.300;0.394;2022-09-12T10:46:36;4.90;;;2.05;;
17310;SDS011;8773;43.300;0.394;2022-09-12T10:49:12;5.85;;;2.42;;
17310;SDS011;8773;43.300;0.394;2022-09-12T10:51:52;4.13;;;2.42;;
17310;SDS011;8773;43.300;0.394;2022-09-12T10:54:22;4.05;;;2.10;;
17310;SDS011;8773;43.300;0.394;2022-09-12T11:00:07;4.53;;;2.20;;
17310;SDS011;8773;43.300;0.394;2022-09-12T11:05:50;4.18;;;2.08;;
17310;SDS011;8773;43.300;0.394;2022-09-12T11:08:28;6.72;;;2.15;;
17310;SDS011;8773;43.300;0.394;2022-09-12T11:11:23;5.13;;;2.20;;
17310;SDS011;8773;43.300;0.394;2022-09-12T11:14:23;6.78;;;2.60;;
17310;SDS011;8773;43.300;0.394;2022-09-12T11:17:05;4.68;;;2.15;;
17310;SDS011;8773;43.300;0.394;2022-09-12T11:19:46;7.90;;;2.50;;
17310;SDS011;8773;43.300;0.394;2022-09-12T11:22:31;5.03;;;2.10;;
17310;SDS011;8773;43.300;0.394;2022-09-12T11:25:14;6.65;;;1.95;;
17310;SDS011;8773;43.300;0.394;2022-09-12T11:30:54;5.60;;;2.20;;
17310;SDS011;8773;43.300;0.394;2022-09-12T11:33:37;16.42;;;3.20;;
17310;SDS011;8773;43.300;0.394;2022-09-12T11:36:14;5.13;;;2.00;;
17310;SDS011;8773;43.300;0.394;2022-09-12T11:38:51;4.50;;;2.40;;
17310;SDS011;8773;43.300;0.394;2022-09-12T11:41:29;6.20;;;2.28;;
17310;SDS011;8773;43.300;0.394;2022-09-12T11:44:02;6.82;;;2.60;;
17310;SDS011;8773;43.300;0.394;2022-09-12T11:46:37;6.15;;;2.50;;
17310;SDS011;8773;43.300;0.394;2022-09-12T11:49:12;4.10;;;2.08;;
17310;SDS011;8773;43.300;0.394;2022-09-12T11:51:48;4.05;;;2.28;;
17310;SDS011;8773;43.300;0.394;2022-09-12T11:54:21;5.00;;;2.10;;
17310;SDS011;8773;43.300;0.394;2022-09-12T11:56:58;7.13;;;2.40;;
17310;SDS011;8773;43.300;0.394;2022-09-12T11:59:43;4.07;;;1.95;;
17310;SDS011;8773;43.300;0.394;2022-09-12T12:02:20;8.23;;;2.30;;
17310;SDS011;8773;43.300;0.394;2022-09-12T12:04:58;4.25;;;1.73;;
17310;SDS011;8773;43.300;0.394;2022-09-12T12:07:36;4.90;;;2.10;;
17310;SDS011;8773;43.300;0.394;2022-09-12T12:10:20;4.07;;;2.13;;
17310;SDS011;8773;43.300;0.394;2022-09-12T12:12:52;5.53;;;2.35;;
17310;SDS011;8773;43.300;0.394;2022-09-12T12:15:22;5.80;;;1.88;;
17310;SDS011;8773;43.300;0.394;2022-09-12T12:17:59;6.28;;;2.35;;
17310;SDS011;8773;43.300;0.394;2022-09-12T12:20:29;4.07;;;2.03;;
17310;SDS011;8773;43.300;0.394;2022-09-12T12:22:59;5.20;;;2.05;;
17310;SDS011;8773;43.300;0.394;2022-09-12T12:25:37;7.55;;;2.17;;
17310;SDS011;8773;43.300;0.394;2022-09-12T12:28:10;5.38;;;2.00;;
17310;SDS011;8773;43.300;0.394;2022-09-12T12:36:28;4.80;;;2.50;;
17310;SDS011;8773;43.300;0.394;2022-09-12T12:39:01;3.45;;;2.35;;
17310;SDS011;8773;43.300;0.394;2022-09-12T12:42:21;4.30;;;2.20;;
17310;SDS011;8773;43.300;0.394;2022-09-12T12:45:46;5.32;;;2.10;;
17310;SDS011;8773;43.300;0.394;2022-09-12T12:48:25;3.28;;;1.73;;
17310;SDS011;8773;43.300;0.394;2022-09-12T12:51:28;6.38;;;2.30;;
17310;SDS011;8773;43.300;0.394;2022-09-12T12:57:34;6.28;;;2.10;;
17310;SDS011;8773;43.300;0.394;2022-09-12T13:00:27;3.60;;;1.95;;
17310;SDS011;8773;43.300;0.394;2022-09-12T13:03:00;4.88;;;2.25;;
17310;SDS011;8773;43.300;0.394;2022-09-12T13:05:40;4.13;;;2.10;;
17310;SDS011;8773;43.300;0.394;2022-09-12T13:08:18;6.80;;;1.85;;
17310;SDS011;8773;43.300;0.394;2022-09-12T13:10:58;5.55;;;2.03;;
17310;SDS011;8773;43.300;0.394;2022-09-12T13:13:29;3.65;;;1.70;;
17310;SDS011;8773;43.300;0.394;2022-09-12T13:16:01;3.38;;;1.70;;
17310;SDS011;8773;43.300;0.394;2022-09-12T13:18:31;5.03;;;2.00;;
17310;SDS011;8773;43.300;0.394;2022-09-12T13:21:11;5.22;;;2.08;;
17310;SDS011;8773;43.300;0.394;2022-09-12T13:23:41;7.45;;;2.13;;
17310;SDS011;8773;43.300;0.394;2022-09-12T13:26:11;3.95;;;1.90;;
17310;SDS011;8773;43.300;0.394;2022-09-12T13:28:45;6.20;;;2.05;;
17310;SDS011;8773;43.300;0.394;2022-09-12T13:31:20;7.25;;;2.60;;
17310;SDS011;8773;43.300;0.394;2022-09-12T13:33:51;3.53;;;2.30;;
17310;SDS011;8773;43.300;0.394;2022-09-12T13:36:35;4.72;;;1.80;;
17310;SDS011;8773;43.300;0.394;2022-09-12T13:39:16;4.63;;;2.10;;
17310;SDS011;8773;43.300;0.394;2022-09-12T13:41:53;2.50;;;1.67;;
17310;SDS011;8773;43.300;0.394;2022-09-12T13:44:41;6.63;;;2.35;;
17310;SDS011;8773;43.300;0.394;2022-09-12T13:47:12;7.03;;;2.30;;
17310;SDS011;8773;43.300;0.394;2022-09-12T13:49:42;5.65;;;2.15;;
17310;SDS011;8773;43.300;0.394;2022-09-12T13:52:14;3.40;;;1.80;;
17310;SDS011;8773;43.300;0.394;2022-09-12T13:54:45;5.80;;;2.00;;
17310;SDS011;8773;43.300;0.394;2022-09-12T13:57:30;3.90;;;2.03;;
17310;SDS011;8773;43.300;0.394;2022-09-12T14:00:02;7.55;;;2.70;;
17310;SDS011;8773;43.300;0.394;2022-09-12T14:02:33;4.93;;;2.40;;
17310;SDS011;8773;43.300;0.394;2022-09-12T14:05:10;3.90;;;2.00;;
17310;SDS011;8773;43.300;0.394;2022-09-12T14:07:46;4.63;;;1.98;;
17310;SDS011;8773;43.300;0.394;2022-09-12T14:10:22;3.17;;;1.90;;
17310;SDS011;8773;43.300;0.394;2022-09-12T14:12:55;8.02;;;2.63;;
17310;SDS011;8773;43.300;0.394;2022-09-12T14:15:27;4.57;;;2.00;;
17310;SDS011;8773;43.300;0.394;2022-09-12T14:17:58;3.97;;;2.38;;
17310;SDS011;8773;43.300;0.394;2022-09-12T14:20:28;4.50;;;2.17;;
17310;SDS011;8773;43.300;0.394;2022-09-12T14:22:58;3.88;;;2.00;;
17310;SDS011;8773;43.300;0.394;2022-09-12T14:25:30;3.50;;;2.22;;
17310;SDS011;8773;43.300;0.394;2022-09-12T14:28:02;6.22;;;2.20;;
17310;SDS011;8773;43.300;0.394;2022-09-12T14:30:33;4.97;;;1.90;;
17310;SDS011;8773;43.300;0.394;2022-09-12T14:33:03;3.30;;;2.10;;
17310;SDS011;8773;43.300;0.394;2022-09-12T14:35:41;4.97;;;2.10;;
17310;SDS011;8773;43.300;0.394;2022-09-12T14:38:12;6.28;;;2.20;;
17310;SDS011;8773;43.300;0.394;2022-09-12T14:40:51;3.92;;;2.08;;
17310;SDS011;8773;43.300;0.394;2022-09-12T14:43:29;3.15;;;2.13;;
17310;SDS011;8773;43.300;0.394;2022-09-12T14:46:02;5.00;;;2.05;;
17310;SDS011;8773;43.300;0.394;2022-09-12T14:48:34;3.75;;;2.45;;
17310;SDS011;8773;43.300;0.394;2022-09-12T14:51:15;4.30;;;2.08;;
17310;SDS011;8773;43.300;0.394;2022-09-12T14:53:47;5.82;;;1.80;;
17310;SDS011;8773;43.300;0.394;2022-09-12T14:56:16;5.57;;;2.53;;
17310;SDS011;8773;43.300;0.394;2022-09-12T14:58:47;6.28;;;2.25;;
17310;SDS011;8773;43.300;0.394;2022-09-12T15:01:23;4.25;;;2.22;;
17310;SDS011;8773;43.300;0.394;2022-09-12T15:03:54;4.05;;;2.20;;
17310;SDS011;8773;43.300;0.394;2022-09-12T15:06:25;3.40;;;2.20;;
17310;SDS011;8773;43.300;0.394;2022-09-12T15:08:55;6.88;;;2.05;;
17310;SDS011;8773;43.300;0.394;2022-09-12T15:11:24;4.72;;;2.20;;
17310;SDS011;8773;43.300;0.394;2022-09-12T15:13:53;3.85;;;2.10;;
17310;SDS011;8773;43.300;0.394;2022-09-12T15:16:21;6.38;;;2.50;;
17310;SDS011;8773;43.300;0.394;2022-09-12T15:18:50;5.97;;;2.38;;
17310;SDS011;8773;43.300;0.394;2022-09-12T15:21:18;3.63;;;1.95;;
17310;SDS011;8773;43.300;0.394;2022-09-12T15:23:47;5.43;;;2.35;;
17310;SDS011;8773;43.300;0.394;2022-09-12T15:26:17;4.95;;;2.45;;
17310;SDS011;8773;43.300;0.394;2022-09-12T15:28:47;5.53;;;2.10;;
17310;SDS011;8773;43.300;0.394;2022-09-12T15:31:17;5.85;;;2.42;;
17310;SDS011;8773;43.300;0.394;2022-09-12T15:33:51;4.82;;;2.10;;
17310;SDS011;8773;43.300;0.394;2022-09-12T15:36:20;3.58;;;2.08;;
17310;SDS011;8773;43.300;0.394;2022-09-12T15:38:50;3.53;;;2.38;;
17310;SDS011;8773;43.300;0.394;2022-09-12T15:41:19;5.93;;;2.40;;
17310;SDS011;8773;43.300;0.394;2022-09-12T15:43:49;4.80;;;2.13;;
17310;SDS011;8773;43.300;0.394;2022-09-12T15:46:17;5.00;;;2.20;;
17310;SDS011;8773;43.300;0.394;2022-09-12T15:48:46;5.90;;;2.15;;
17310;SDS011;8773;43.300;0.394;2022-09-12T15:51:16;6.05;;;2.47;;
17310;SDS011;8773;43.300;0.394;2022-09-12T15:53:47;6.03;;;2.17;;
17310;SDS011;8773;43.300;0.394;2022-09-12T15:56:16;5.53;;;2.50;;
17310;SDS011;8773;43.300;0.394;2022-09-12T15:58:48;5.18;;;2.70;;
17310;SDS011;8773;43.300;0.394;2022-09-12T16:01:25;5.43;;;2.33;;
17310;SDS011;8773;43.300;0.394;2022-09-12T16:03:54;6.65;;;3.05;;
17310;SDS011;8773;43.300;0.394;2022-09-12T16:06:24;5.60;;;2.78;;
17310;SDS011;8773;43.300;0.394;2022-09-12T16:08:53;5.60;;;2.22;;
17310;SDS011;8773;43.300;0.394;2022-09-12T16:11:24;6.55;;;2.33;;
17310;SDS011;8773;43.300;0.394;2022-09-12T16:13:53;7.90;;;2.50;;